Charlotte II — CHAR — position and weather

sailwx.info

Track history (hours):
 
Tides and Currents Weather Stations Pressure Air Temp Water Temp Dewpoint Dewpoint Depression Visibility Wind Speed Wind Dir Waves Ship Positions

Charlotte II

Last reported at 2017-Aug-17 10:52 UTC. Time now 2017-Nov-24 11:42 UTC.
Position N 48°35' W 004°45'.
Warning: this ship's position is months out of date.

Length 10 m.

Type: Pleasure craft. MMSI: 227281360.

Date/timePositionNaut miles runAvg speedWind from/ knotsBaromVisibWave heightAir tempDewpointWater temp
2017-Aug-17 10:52N 48°35' W 004°45'3 7.3
2017-Aug-17 10:31N 48°33' W 004°47'3 6.7
2017-Aug-17 10:01N 48°30' W 004°49'3 6.3
2017-Aug-17 09:30N 48°27' W 004°49'4 6.9
2017-Aug-17 08:58N 48°23' W 004°48'5 6.2
2017-Aug-17 08:12N 48°19' W 004°45'1 6.4
2017-Aug-17 08:00N 48°19' W 004°43'3 5.2
2017-Aug-17 07:31N 48°18' W 004°39'2 4.8
2017-Aug-17 07:01N 48°17' W 004°36'0 0.0
2017-Aug-15 15:25N 48°17' W 004°35'0 0.5
2017-Aug-15 14:59N 48°17' W 004°35'0 0.0
2017-Aug-15 14:29N 48°17' W 004°35'0 0.0
2017-Aug-15 13:59N 48°17' W 004°35'0 0.7
2017-Aug-15 13:30N 48°17' W 004°35'2 3.4
2017-Aug-15 13:00N 48°17' W 004°38'3 6.0
2017-Aug-15 12:30N 48°15' W 004°42'3 6.0
2017-Aug-15 12:00N 48°14' W 004°46'3 5.7
2017-Aug-15 11:30N 48°12' W 004°49'4 5.8
2017-Aug-15 10:53N 48°10' W 004°54'5 5.6
2017-Aug-15 09:58N 48°08' W 005°00'  
Track history (hours):
 
Tides and Currents Weather Stations Pressure Air Temp Water Temp Dewpoint Dewpoint Depression Visibility Wind Speed Wind Dir Waves Ship Positions

Charlotte II

Last reported at 2017-Aug-17 10:52 UTC. Time now 2017-Nov-24 11:42 UTC.
Position N 48°35' W 004°45'.
Warning: this ship's position is months out of date.

Length 10 m.

Type: Pleasure craft. MMSI: 227281360.

Date/timePositionNaut miles runAvg speedWind from/ knotsBaromVisibWave heightAir tempDewpointWater temp
2017-Aug-17 10:52N 48°35' W 004°45'3 7.3
2017-Aug-17 10:31N 48°33' W 004°47'3 6.7
2017-Aug-17 10:01N 48°30' W 004°49'3 6.3
2017-Aug-17 09:30N 48°27' W 004°49'4 6.9
2017-Aug-17 08:58N 48°23' W 004°48'5 6.2
2017-Aug-17 08:12N 48°19' W 004°45'1 6.4
2017-Aug-17 08:00N 48°19' W 004°43'3 5.2
2017-Aug-17 07:31N 48°18' W 004°39'2 4.8
2017-Aug-17 07:01N 48°17' W 004°36'0 0.0
2017-Aug-15 15:25N 48°17' W 004°35'0 0.5
2017-Aug-15 14:59N 48°17' W 004°35'0 0.0
2017-Aug-15 14:29N 48°17' W 004°35'0 0.0
2017-Aug-15 13:59N 48°17' W 004°35'0 0.7
2017-Aug-15 13:30N 48°17' W 004°35'2 3.4
2017-Aug-15 13:00N 48°17' W 004°38'3 6.0
2017-Aug-15 12:30N 48°15' W 004°42'3 6.0
2017-Aug-15 12:00N 48°14' W 004°46'3 5.7
2017-Aug-15 11:30N 48°12' W 004°49'4 5.8
2017-Aug-15 10:53N 48°10' W 004°54'5 5.6
2017-Aug-15 09:58N 48°08' W 005°00'  

Dump ship's entire track history